sensor_id;sensor_type;location;lat;lon;timestamp;P1;durP1;ratioP1;P2;durP2;ratioP2
74487;SDS011;63019;51.080;13.642;2023-07-20T00:00:10;4.20;;;1.88;;
74487;SDS011;63019;51.080;13.642;2023-07-20T00:01:15;3.92;;;1.65;;
74487;SDS011;63019;51.080;13.642;2023-07-20T00:02:17;5.25;;;1.73;;
74487;SDS011;63019;51.080;13.642;2023-07-20T00:03:19;3.13;;;1.30;;
74487;SDS011;63019;51.080;13.642;2023-07-20T00:04:24;2.87;;;1.60;;
74487;SDS011;63019;51.080;13.642;2023-07-20T00:05:26;4.53;;;1.80;;
74487;SDS011;63019;51.080;13.642;2023-07-20T00:06:28;7.88;;;1.98;;
74487;SDS011;63019;51.080;13.642;2023-07-20T00:07:29;6.50;;;1.60;;
74487;SDS011;63019;51.080;13.642;2023-07-20T00:08:31;3.53;;;2.00;;
74487;SDS011;63019;51.080;13.642;2023-07-20T00:09:33;3.65;;;1.48;;
74487;SDS011;63019;51.080;13.642;2023-07-20T00:10:36;3.35;;;1.65;;
74487;SDS011;63019;51.080;13.642;2023-07-20T00:11:38;2.03;;;1.63;;
74487;SDS011;63019;51.080;13.642;2023-07-20T00:12:40;4.25;;;1.63;;
74487;SDS011;63019;51.080;13.642;2023-07-20T00:13:42;2.50;;;1.27;;
74487;SDS011;63019;51.080;13.642;2023-07-20T00:14:44;8.00;;;2.33;;
74487;SDS011;63019;51.080;13.642;2023-07-20T00:15:47;5.05;;;1.58;;
74487;SDS011;63019;51.080;13.642;2023-07-20T00:16:52;5.00;;;1.70;;
74487;SDS011;63019;51.080;13.642;2023-07-20T00:17:59;4.88;;;1.60;;
74487;SDS011;63019;51.080;13.642;2023-07-20T00:19:01;8.27;;;1.70;;
74487;SDS011;63019;51.080;13.642;2023-07-20T00:20:04;3.20;;;1.85;;
74487;SDS011;63019;51.080;13.642;2023-07-20T00:21:07;4.60;;;1.63;;
74487;SDS011;63019;51.080;13.642;2023-07-20T00:22:09;6.15;;;1.60;;
74487;SDS011;63019;51.080;13.642;2023-07-20T00:23:12;5.57;;;1.50;;
74487;SDS011;63019;51.080;13.642;2023-07-20T00:24:14;6.50;;;1.75;;
74487;SDS011;63019;51.080;13.642;2023-07-20T00:25:16;5.33;;;1.87;;
74487;SDS011;63019;51.080;13.642;2023-07-20T00:26:18;4.65;;;1.40;;
74487;SDS011;63019;51.080;13.642;2023-07-20T00:27:21;2.92;;;1.17;;
74487;SDS011;63019;51.080;13.642;2023-07-20T00:28:23;4.13;;;1.20;;
74487;SDS011;63019;51.080;13.642;2023-07-20T00:29:24;3.38;;;1.20;;
74487;SDS011;63019;51.080;13.642;2023-07-20T00:30:26;5.70;;;1.30;;
74487;SDS011;63019;51.080;13.642;2023-07-20T00:31:28;3.42;;;1.20;;
74487;SDS011;63019;51.080;13.642;2023-07-20T00:32:30;1.67;;;1.23;;
74487;SDS011;63019;51.080;13.642;2023-07-20T00:33:32;3.38;;;1.40;;
74487;SDS011;63019;51.080;13.642;2023-07-20T00:34:34;4.00;;;1.30;;
74487;SDS011;63019;51.080;13.642;2023-07-20T00:35:36;2.93;;;1.37;;
74487;SDS011;63019;51.080;13.642;2023-07-20T00:36:39;2.83;;;1.30;;
74487;SDS011;63019;51.080;13.642;2023-07-20T00:37:41;4.93;;;1.30;;
74487;SDS011;63019;51.080;13.642;2023-07-20T00:38:43;4.88;;;1.13;;
74487;SDS011;63019;51.080;13.642;2023-07-20T00:39:45;5.05;;;1.05;;
74487;SDS011;63019;51.080;13.642;2023-07-20T00:40:47;2.65;;;1.10;;
74487;SDS011;63019;51.080;13.642;2023-07-20T00:41:52;8.10;;;1.25;;
74487;SDS011;63019;51.080;13.642;2023-07-20T00:42:54;3.38;;;1.20;;
74487;SDS011;63019;51.080;13.642;2023-07-20T00:43:56;3.47;;;1.05;;
74487;SDS011;63019;51.080;13.642;2023-07-20T00:44:58;5.75;;;1.23;;
74487;SDS011;63019;51.080;13.642;2023-07-20T00:45:59;4.30;;;0.93;;
74487;SDS011;63019;51.080;13.642;2023-07-20T00:47:04;5.60;;;0.77;;
74487;SDS011;63019;51.080;13.642;2023-07-20T00:48:07;3.67;;;1.00;;
74487;SDS011;63019;51.080;13.642;2023-07-20T00:49:09;7.25;;;1.45;;
74487;SDS011;63019;51.080;13.642;2023-07-20T00:50:11;1.85;;;0.90;;
74487;SDS011;63019;51.080;13.642;2023-07-20T00:51:14;2.65;;;0.60;;
74487;SDS011;63019;51.080;13.642;2023-07-20T00:52:16;2.25;;;0.75;;
74487;SDS011;63019;51.080;13.642;2023-07-20T00:53:18;6.53;;;0.70;;
74487;SDS011;63019;51.080;13.642;2023-07-20T00:54:20;2.60;;;0.70;;
74487;SDS011;63019;51.080;13.642;2023-07-20T00:55:22;4.80;;;0.73;;
74487;SDS011;63019;51.080;13.642;2023-07-20T00:56:25;0.50;;;0.50;;
74487;SDS011;63019;51.080;13.642;2023-07-20T00:57:27;2.28;;;0.68;;
74487;SDS011;63019;51.080;13.642;2023-07-20T00:58:29;3.40;;;0.70;;
74487;SDS011;63019;51.080;13.642;2023-07-20T00:59:31;3.28;;;1.08;;
74487;SDS011;63019;51.080;13.642;2023-07-20T01:00:33;3.42;;;0.80;;
74487;SDS011;63019;51.080;13.642;2023-07-20T01:01:35;3.00;;;0.57;;
74487;SDS011;63019;51.080;13.642;2023-07-20T01:02:37;1.95;;;0.50;;
74487;SDS011;63019;51.080;13.642;2023-07-20T01:03:39;1.60;;;0.60;;
74487;SDS011;63019;51.080;13.642;2023-07-20T01:04:41;3.03;;;0.57;;
74487;SDS011;63019;51.080;13.642;2023-07-20T01:07:23;1.67;;;0.70;;
74487;SDS011;63019;51.080;13.642;2023-07-20T01:08:37;0.93;;;0.40;;
74487;SDS011;63019;51.080;13.642;2023-07-20T01:09:48;3.25;;;0.60;;
74487;SDS011;63019;51.080;13.642;2023-07-20T01:11:02;1.05;;;0.50;;
74487;SDS011;63019;51.080;13.642;2023-07-20T01:13:43;1.88;;;0.50;;
74487;SDS011;63019;51.080;13.642;2023-07-20T01:14:46;5.00;;;0.73;;
74487;SDS011;63019;51.080;13.642;2023-07-20T01:16:00;2.38;;;0.63;;
74487;SDS011;63019;51.080;13.642;2023-07-20T01:17:02;3.13;;;0.80;;
74487;SDS011;63019;51.080;13.642;2023-07-20T01:18:04;2.88;;;0.85;;
74487;SDS011;63019;51.080;13.642;2023-07-20T01:19:06;4.73;;;1.00;;
74487;SDS011;63019;51.080;13.642;2023-07-20T01:20:08;4.10;;;1.00;;
74487;SDS011;63019;51.080;13.642;2023-07-20T01:21:17;7.25;;;0.90;;
74487;SDS011;63019;51.080;13.642;2023-07-20T01:25:18;4.25;;;1.10;;
74487;SDS011;63019;51.080;13.642;2023-07-20T01:32:25;5.33;;;1.10;;
74487;SDS011;63019;51.080;13.642;2023-07-20T01:33:28;7.05;;;1.23;;
74487;SDS011;63019;51.080;13.642;2023-07-20T01:34:34;4.43;;;1.10;;
74487;SDS011;63019;51.080;13.642;2023-07-20T01:35:37;6.80;;;1.67;;
74487;SDS011;63019;51.080;13.642;2023-07-20T01:36:41;11.27;;;1.40;;
74487;SDS011;63019;51.080;13.642;2023-07-20T01:37:44;5.15;;;1.10;;
74487;SDS011;63019;51.080;13.642;2023-07-20T01:38:49;3.60;;;1.17;;
74487;SDS011;63019;51.080;13.642;2023-07-20T01:39:52;8.05;;;1.48;;
74487;SDS011;63019;51.080;13.642;2023-07-20T01:40:56;4.47;;;1.40;;
74487;SDS011;63019;51.080;13.642;2023-07-20T01:41:59;6.68;;;1.38;;
74487;SDS011;63019;51.080;13.642;2023-07-20T01:43:02;1.90;;;1.30;;
74487;SDS011;63019;51.080;13.642;2023-07-20T01:44:04;2.13;;;1.27;;
74487;SDS011;63019;51.080;13.642;2023-07-20T01:45:06;7.45;;;1.50;;
74487;SDS011;63019;51.080;13.642;2023-07-20T01:46:09;5.00;;;1.25;;
74487;SDS011;63019;51.080;13.642;2023-07-20T01:47:11;2.63;;;1.35;;
74487;SDS011;63019;51.080;13.642;2023-07-20T01:48:12;2.08;;;1.20;;
74487;SDS011;63019;51.080;13.642;2023-07-20T01:49:14;4.65;;;1.30;;
74487;SDS011;63019;51.080;13.642;2023-07-20T01:50:16;4.90;;;1.20;;
74487;SDS011;63019;51.080;13.642;2023-07-20T01:51:18;5.78;;;1.40;;
74487;SDS011;63019;51.080;13.642;2023-07-20T01:52:20;2.92;;;1.63;;
74487;SDS011;63019;51.080;13.642;2023-07-20T01:53:22;9.90;;;1.63;;
74487;SDS011;63019;51.080;13.642;2023-07-20T01:54:24;5.07;;;1.80;;
74487;SDS011;63019;51.080;13.642;2023-07-20T01:55:26;5.35;;;1.80;;
74487;SDS011;63019;51.080;13.642;2023-07-20T01:56:28;4.75;;;1.65;;
74487;SDS011;63019;51.080;13.642;2023-07-20T01:57:30;4.40;;;1.67;;
74487;SDS011;63019;51.080;13.642;2023-07-20T01:58:32;7.30;;;1.65;;
74487;SDS011;63019;51.080;13.642;2023-07-20T01:59:34;6.13;;;1.75;;
74487;SDS011;63019;51.080;13.642;2023-07-20T02:00:38;5.40;;;1.63;;
74487;SDS011;63019;51.080;13.642;2023-07-20T02:01:40;10.15;;;1.80;;
74487;SDS011;63019;51.080;13.642;2023-07-20T02:02:42;5.13;;;1.70;;
74487;SDS011;63019;51.080;13.642;2023-07-20T02:03:44;8.27;;;1.93;;
74487;SDS011;63019;51.080;13.642;2023-07-20T02:04:46;4.68;;;2.03;;
74487;SDS011;63019;51.080;13.642;2023-07-20T02:05:48;7.30;;;2.30;;
74487;SDS011;63019;51.080;13.642;2023-07-20T02:06:50;7.10;;;2.33;;
74487;SDS011;63019;51.080;13.642;2023-07-20T02:07:52;6.38;;;1.83;;
74487;SDS011;63019;51.080;13.642;2023-07-20T02:08:54;8.20;;;1.98;;
74487;SDS011;63019;51.080;13.642;2023-07-20T02:09:56;8.93;;;3.33;;
74487;SDS011;63019;51.080;13.642;2023-07-20T02:10:58;13.43;;;2.80;;
74487;SDS011;63019;51.080;13.642;2023-07-20T02:12:00;12.82;;;2.00;;
74487;SDS011;63019;51.080;13.642;2023-07-20T02:13:02;8.00;;;2.20;;
74487;SDS011;63019;51.080;13.642;2023-07-20T02:14:04;5.67;;;1.97;;
74487;SDS011;63019;51.080;13.642;2023-07-20T02:15:06;11.60;;;2.83;;
74487;SDS011;63019;51.080;13.642;2023-07-20T02:16:08;5.07;;;2.65;;
74487;SDS011;63019;51.080;13.642;2023-07-20T02:17:10;7.65;;;2.65;;
74487;SDS011;63019;51.080;13.642;2023-07-20T02:18:12;5.07;;;2.53;;
74487;SDS011;63019;51.080;13.642;2023-07-20T02:19:14;10.55;;;2.70;;
74487;SDS011;63019;51.080;13.642;2023-07-20T02:20:16;8.60;;;3.00;;
74487;SDS011;63019;51.080;13.642;2023-07-20T02:21:19;11.65;;;2.60;;
74487;SDS011;63019;51.080;13.642;2023-07-20T02:22:21;5.88;;;2.55;;
74487;SDS011;63019;51.080;13.642;2023-07-20T02:23:23;7.38;;;2.50;;
74487;SDS011;63019;51.080;13.642;2023-07-20T02:24:25;4.73;;;2.50;;
74487;SDS011;63019;51.080;13.642;2023-07-20T02:25:27;6.30;;;2.47;;
74487;SDS011;63019;51.080;13.642;2023-07-20T02:26:29;11.35;;;2.53;;
74487;SDS011;63019;51.080;13.642;2023-07-20T02:27:31;6.00;;;2.63;;
74487;SDS011;63019;51.080;13.642;2023-07-20T02:28:32;6.95;;;2.80;;
74487;SDS011;63019;51.080;13.642;2023-07-20T02:29:34;10.75;;;2.70;;
74487;SDS011;63019;51.080;13.642;2023-07-20T02:30:37;7.03;;;2.63;;
74487;SDS011;63019;51.080;13.642;2023-07-20T02:31:40;10.65;;;2.58;;
74487;SDS011;63019;51.080;13.642;2023-07-20T02:32:44;6.90;;;2.53;;
74487;SDS011;63019;51.080;13.642;2023-07-20T02:33:49;7.80;;;2.47;;
74487;SDS011;63019;51.080;13.642;2023-07-20T02:34:51;6.50;;;2.50;;
74487;SDS011;63019;51.080;13.642;2023-07-20T02:35:53;6.70;;;2.30;;
74487;SDS011;63019;51.080;13.642;2023-07-20T02:36:55;8.20;;;2.50;;
74487;SDS011;63019;51.080;13.642;2023-07-20T02:37:59;9.70;;;2.60;;
74487;SDS011;63019;51.080;13.642;2023-07-20T02:39:01;5.65;;;2.30;;
74487;SDS011;63019;51.080;13.642;2023-07-20T02:40:05;5.60;;;2.30;;
74487;SDS011;63019;51.080;13.642;2023-07-20T02:41:08;10.38;;;2.47;;
74487;SDS011;63019;51.080;13.642;2023-07-20T02:42:10;4.88;;;2.10;;
74487;SDS011;63019;51.080;13.642;2023-07-20T02:43:12;9.38;;;3.03;;
74487;SDS011;63019;51.080;13.642;2023-07-20T02:44:14;11.43;;;2.40;;
74487;SDS011;63019;51.080;13.642;2023-07-20T02:45:16;7.00;;;1.97;;
74487;SDS011;63019;51.080;13.642;2023-07-20T02:46:18;6.75;;;1.88;;
74487;SDS011;63019;51.080;13.642;2023-07-20T02:47:20;5.80;;;1.90;;
74487;SDS011;63019;51.080;13.642;2023-07-20T02:48:21;7.20;;;1.98;;
74487;SDS011;63019;51.080;13.642;2023-07-20T02:49:23;6.57;;;1.98;;
74487;SDS011;63019;51.080;13.642;2023-07-20T02:50:25;7.32;;;2.00;;
74487;SDS011;63019;51.080;13.642;2023-07-20T02:51:27;10.57;;;2.25;;
74487;SDS011;63019;51.080;13.642;2023-07-20T02:52:29;4.55;;;1.90;;
74487;SDS011;63019;51.080;13.642;2023-07-20T02:53:31;5.72;;;1.80;;
74487;SDS011;63019;51.080;13.642;2023-07-20T02:54:33;2.63;;;1.58;;
74487;SDS011;63019;51.080;13.642;2023-07-20T02:55:35;6.73;;;1.70;;
74487;SDS011;63019;51.080;13.642;2023-07-20T02:56:37;9.30;;;1.85;;
74487;SDS011;63019;51.080;13.642;2023-07-20T02:57:38;6.78;;;1.83;;
74487;SDS011;63019;51.080;13.642;2023-07-20T02:58:41;11.32;;;1.73;;
74487;SDS011;63019;51.080;13.642;2023-07-20T02:59:47;11.32;;;2.08;;
74487;SDS011;63019;51.080;13.642;2023-07-20T03:00:49;3.00;;;1.83;;
74487;SDS011;63019;51.080;13.642;2023-07-20T03:01:51;5.63;;;1.77;;
74487;SDS011;63019;51.080;13.642;2023-07-20T03:02:53;11.50;;;3.30;;
74487;SDS011;63019;51.080;13.642;2023-07-20T03:03:57;5.78;;;1.80;;
74487;SDS011;63019;51.080;13.642;2023-07-20T03:04:59;10.38;;;2.40;;
74487;SDS011;63019;51.080;13.642;2023-07-20T03:06:02;9.47;;;2.37;;
74487;SDS011;63019;51.080;13.642;2023-07-20T03:07:04;9.05;;;2.63;;
74487;SDS011;63019;51.080;13.642;2023-07-20T03:08:06;7.20;;;2.53;;
74487;SDS011;63019;51.080;13.642;2023-07-20T03:09:08;7.60;;;2.20;;
74487;SDS011;63019;51.080;13.642;2023-07-20T03:10:10;8.75;;;2.28;;
74487;SDS011;63019;51.080;13.642;2023-07-20T03:11:13;6.90;;;2.40;;
74487;SDS011;63019;51.080;13.642;2023-07-20T03:12:19;7.68;;;2.35;;
74487;SDS011;63019;51.080;13.642;2023-07-20T03:13:21;9.07;;;3.13;;
74487;SDS011;63019;51.080;13.642;2023-07-20T03:14:22;5.65;;;2.13;;
74487;SDS011;63019;51.080;13.642;2023-07-20T03:15:25;5.85;;;2.20;;
74487;SDS011;63019;51.080;13.642;2023-07-20T03:16:26;4.83;;;2.63;;
74487;SDS011;63019;51.080;13.642;2023-07-20T03:17:28;9.32;;;2.47;;
74487;SDS011;63019;51.080;13.642;2023-07-20T03:18:30;9.50;;;2.45;;
74487;SDS011;63019;51.080;13.642;2023-07-20T03:19:32;13.77;;;2.60;;
74487;SDS011;63019;51.080;13.642;2023-07-20T03:20:35;10.70;;;2.63;;
74487;SDS011;63019;51.080;13.642;2023-07-20T03:21:37;7.75;;;2.85;;
74487;SDS011;63019;51.080;13.642;2023-07-20T03:22:42;5.90;;;2.28;;
74487;SDS011;63019;51.080;13.642;2023-07-20T03:23:44;8.95;;;2.70;;
74487;SDS011;63019;51.080;13.642;2023-07-20T03:24:46;7.20;;;2.40;;
74487;SDS011;63019;51.080;13.642;2023-07-20T03:25:47;9.30;;;2.47;;
74487;SDS011;63019;51.080;13.642;2023-07-20T03:26:49;7.93;;;2.57;;
74487;SDS011;63019;51.080;13.642;2023-07-20T03:27:51;7.43;;;2.53;;
74487;SDS011;63019;51.080;13.642;2023-07-20T03:28:53;7.68;;;2.50;;
74487;SDS011;63019;51.080;13.642;2023-07-20T03:29:55;8.43;;;2.63;;
74487;SDS011;63019;51.080;13.642;2023-07-20T03:30:57;11.63;;;2.95;;
74487;SDS011;63019;51.080;13.642;2023-07-20T03:31:59;9.60;;;2.70;;
74487;SDS011;63019;51.080;13.642;2023-07-20T03:33:02;6.40;;;2.58;;
74487;SDS011;63019;51.080;13.642;2023-07-20T03:34:04;5.82;;;2.25;;
74487;SDS011;63019;51.080;13.642;2023-07-20T03:35:06;6.90;;;2.72;;
74487;SDS011;63019;51.080;13.642;2023-07-20T03:36:08;6.70;;;2.50;;
74487;SDS011;63019;51.080;13.642;2023-07-20T03:37:12;9.10;;;2.50;;
74487;SDS011;63019;51.080;13.642;2023-07-20T03:38:14;6.25;;;2.50;;
74487;SDS011;63019;51.080;13.642;2023-07-20T03:39:16;6.85;;;2.83;;
74487;SDS011;63019;51.080;13.642;2023-07-20T03:40:18;8.13;;;2.80;;
74487;SDS011;63019;51.080;13.642;2023-07-20T03:41:20;18.08;;;3.00;;
74487;SDS011;63019;51.080;13.642;2023-07-20T03:42:23;10.02;;;2.90;;
74487;SDS011;63019;51.080;13.642;2023-07-20T03:43:25;8.27;;;2.60;;
74487;SDS011;63019;51.080;13.642;2023-07-20T03:44:29;8.40;;;2.65;;
74487;SDS011;63019;51.080;13.642;2023-07-20T03:45:31;5.43;;;2.60;;
74487;SDS011;63019;51.080;13.642;2023-07-20T03:46:33;5.20;;;2.00;;
74487;SDS011;63019;51.080;13.642;2023-07-20T03:47:35;6.10;;;2.63;;
74487;SDS011;63019;51.080;13.642;2023-07-20T03:48:37;6.85;;;2.17;;
74487;SDS011;63019;51.080;13.642;2023-07-20T03:49:39;15.20;;;2.30;;
74487;SDS011;63019;51.080;13.642;2023-07-20T03:50:41;10.35;;;2.42;;
74487;SDS011;63019;51.080;13.642;2023-07-20T03:51:43;6.30;;;2.20;;
74487;SDS011;63019;51.080;13.642;2023-07-20T03:52:45;5.65;;;2.30;;
74487;SDS011;63019;51.080;13.642;2023-07-20T03:53:46;8.15;;;2.80;;
74487;SDS011;63019;51.080;13.642;2023-07-20T03:54:49;6.30;;;2.20;;
74487;SDS011;63019;51.080;13.642;2023-07-20T03:55:52;10.02;;;2.95;;
74487;SDS011;63019;51.080;13.642;2023-07-20T03:56:54;12.43;;;2.90;;
74487;SDS011;63019;51.080;13.642;2023-07-20T03:57:56;9.27;;;2.17;;
74487;SDS011;63019;51.080;13.642;2023-07-20T03:58:58;11.38;;;2.80;;
74487;SDS011;63019;51.080;13.642;2023-07-20T04:00:00;14.23;;;2.72;;
74487;SDS011;63019;51.080;13.642;2023-07-20T04:01:02;10.40;;;3.17;;
74487;SDS011;63019;51.080;13.642;2023-07-20T04:02:04;5.22;;;2.45;;
74487;SDS011;63019;51.080;13.642;2023-07-20T04:03:07;7.75;;;2.55;;
74487;SDS011;63019;51.080;13.642;2023-07-20T04:04:09;5.00;;;2.17;;
74487;SDS011;63019;51.080;13.642;2023-07-20T04:05:11;5.32;;;2.53;;
74487;SDS011;63019;51.080;13.642;2023-07-20T04:06:13;10.98;;;2.78;;
74487;SDS011;63019;51.080;13.642;2023-07-20T04:07:15;8.45;;;2.50;;
74487;SDS011;63019;51.080;13.642;2023-07-20T04:08:17;9.33;;;3.00;;
74487;SDS011;63019;51.080;13.642;2023-07-20T04:09:19;11.30;;;2.90;;
74487;SDS011;63019;51.080;13.642;2023-07-20T04:10:21;11.45;;;2.88;;
74487;SDS011;63019;51.080;13.642;2023-07-20T04:11:23;11.52;;;3.00;;
74487;SDS011;63019;51.080;13.642;2023-07-20T04:12:25;5.20;;;2.88;;
74487;SDS011;63019;51.080;13.642;2023-07-20T04:13:27;6.90;;;3.00;;
74487;SDS011;63019;51.080;13.642;2023-07-20T04:14:29;9.23;;;2.85;;
74487;SDS011;63019;51.080;13.642;2023-07-20T04:15:31;15.00;;;3.10;;
74487;SDS011;63019;51.080;13.642;2023-07-20T04:16:33;8.80;;;3.17;;
74487;SDS011;63019;51.080;13.642;2023-07-20T04:17:35;13.15;;;3.33;;
74487;SDS011;63019;51.080;13.642;2023-07-20T04:18:37;9.93;;;3.50;;
74487;SDS011;63019;51.080;13.642;2023-07-20T04:19:38;11.23;;;3.42;;
74487;SDS011;63019;51.080;13.642;2023-07-20T04:20:40;6.80;;;3.22;;
74487;SDS011;63019;51.080;13.642;2023-07-20T04:21:43;9.05;;;2.90;;
74487;SDS011;63019;51.080;13.642;2023-07-20T04:22:45;11.95;;;3.40;;
74487;SDS011;63019;51.080;13.642;2023-07-20T04:23:47;9.27;;;3.40;;
74487;SDS011;63019;51.080;13.642;2023-07-20T04:24:49;9.23;;;3.65;;
74487;SDS011;63019;51.080;13.642;2023-07-20T04:25:51;10.68;;;3.13;;
74487;SDS011;63019;51.080;13.642;2023-07-20T04:26:53;12.32;;;4.03;;
74487;SDS011;63019;51.080;13.642;2023-07-20T04:27:55;12.00;;;3.30;;
74487;SDS011;63019;51.080;13.642;2023-07-20T04:28:57;11.70;;;4.00;;
74487;SDS011;63019;51.080;13.642;2023-07-20T04:30:00;6.28;;;3.33;;
74487;SDS011;63019;51.080;13.642;2023-07-20T04:31:15;9.05;;;3.63;;
74487;SDS011;63019;51.080;13.642;2023-07-20T04:32:17;7.43;;;3.60;;
74487;SDS011;63019;51.080;13.642;2023-07-20T04:33:19;12.95;;;3.97;;
74487;SDS011;63019;51.080;13.642;2023-07-20T04:34:21;13.93;;;4.03;;
74487;SDS011;63019;51.080;13.642;2023-07-20T04:36:47;9.25;;;3.85;;
74487;SDS011;63019;51.080;13.642;2023-07-20T04:37:49;8.80;;;4.00;;
74487;SDS011;63019;51.080;13.642;2023-07-20T04:38:51;14.30;;;4.38;;
74487;SDS011;63019;51.080;13.642;2023-07-20T04:39:53;13.07;;;4.10;;
74487;SDS011;63019;51.080;13.642;2023-07-20T04:40:55;11.15;;;4.10;;
74487;SDS011;63019;51.080;13.642;2023-07-20T04:41:57;12.18;;;5.20;;
74487;SDS011;63019;51.080;13.642;2023-07-20T04:42:59;9.55;;;4.47;;
74487;SDS011;63019;51.080;13.642;2023-07-20T04:44:01;16.38;;;5.40;;
74487;SDS011;63019;51.080;13.642;2023-07-20T04:45:03;14.05;;;4.82;;
74487;SDS011;63019;51.080;13.642;2023-07-20T04:46:05;10.57;;;4.38;;
74487;SDS011;63019;51.080;13.642;2023-07-20T04:47:07;10.07;;;4.40;;
74487;SDS011;63019;51.080;13.642;2023-07-20T04:48:10;12.77;;;5.00;;
74487;SDS011;63019;51.080;13.642;2023-07-20T04:49:13;14.00;;;4.90;;
74487;SDS011;63019;51.080;13.642;2023-07-20T04:50:16;13.37;;;4.93;;
74487;SDS011;63019;51.080;13.642;2023-07-20T04:51:17;13.50;;;4.22;;
74487;SDS011;63019;51.080;13.642;2023-07-20T04:52:22;13.65;;;4.60;;
74487;SDS011;63019;51.080;13.642;2023-07-20T04:53:37;14.38;;;4.78;;
74487;SDS011;63019;51.080;13.642;2023-07-20T04:54:39;11.60;;;4.22;;
74487;SDS011;63019;51.080;13.642;2023-07-20T04:55:46;13.75;;;5.20;;
74487;SDS011;63019;51.080;13.642;2023-07-20T04:56:53;9.25;;;4.20;;
74487;SDS011;63019;51.080;13.642;2023-07-20T04:57:55;8.35;;;4.03;;
74487;SDS011;63019;51.080;13.642;2023-07-20T04:58:57;11.98;;;4.22;;
74487;SDS011;63019;51.080;13.642;2023-07-20T04:59:59;11.07;;;3.90;;
74487;SDS011;63019;51.080;13.642;2023-07-20T05:01:01;13.07;;;3.50;;
74487;SDS011;63019;51.080;13.642;2023-07-20T05:02:03;10.88;;;3.53;;
74487;SDS011;63019;51.080;13.642;2023-07-20T05:03:05;8.68;;;3.67;;
74487;SDS011;63019;51.080;13.642;2023-07-20T05:04:07;13.23;;;3.97;;
74487;SDS011;63019;51.080;13.642;2023-07-20T05:05:09;8.80;;;3.63;;
74487;SDS011;63019;51.080;13.642;2023-07-20T05:06:11;9.70;;;3.75;;
74487;SDS011;63019;51.080;13.642;2023-07-20T05:07:13;9.85;;;3.70;;
74487;SDS011;63019;51.080;13.642;2023-07-20T05:08:15;8.52;;;3.63;;
74487;SDS011;63019;51.080;13.642;2023-07-20T05:09:17;7.80;;;3.50;;
74487;SDS011;63019;51.080;13.642;2023-07-20T05:10:19;8.38;;;3.65;;
74487;SDS011;63019;51.080;13.642;2023-07-20T05:11:21;10.83;;;3.50;;
74487;SDS011;63019;51.080;13.642;2023-07-20T05:12:23;8.10;;;3.58;;
74487;SDS011;63019;51.080;13.642;2023-07-20T05:13:25;9.57;;;3.50;;
74487;SDS011;63019;51.080;13.642;2023-07-20T05:14:27;13.48;;;3.63;;
74487;SDS011;63019;51.080;13.642;2023-07-20T05:15:29;10.52;;;3.35;;
74487;SDS011;63019;51.080;13.642;2023-07-20T05:16:31;7.95;;;2.92;;
74487;SDS011;63019;51.080;13.642;2023-07-20T05:17:33;8.05;;;3.28;;
74487;SDS011;63019;51.080;13.642;2023-07-20T05:18:35;10.65;;;3.50;;
74487;SDS011;63019;51.080;13.642;2023-07-20T05:19:36;11.95;;;2.90;;
74487;SDS011;63019;51.080;13.642;2023-07-20T05:20:38;7.70;;;2.92;;
74487;SDS011;63019;51.080;13.642;2023-07-20T05:21:40;14.50;;;3.10;;
74487;SDS011;63019;51.080;13.642;2023-07-20T05:22:42;11.85;;;3.03;;
74487;SDS011;63019;51.080;13.642;2023-07-20T05:23:44;9.10;;;3.03;;
74487;SDS011;63019;51.080;13.642;2023-07-20T05:24:46;14.77;;;3.38;;
74487;SDS011;63019;51.080;13.642;2023-07-20T05:25:54;8.63;;;3.08;;
74487;SDS011;63019;51.080;13.642;2023-07-20T05:27:00;7.68;;;2.90;;
74487;SDS011;63019;51.080;13.642;2023-07-20T05:28:01;9.88;;;2.80;;
74487;SDS011;63019;51.080;13.642;2023-07-20T05:29:03;7.55;;;2.60;;
74487;SDS011;63019;51.080;13.642;2023-07-20T05:30:05;9.73;;;3.08;;
74487;SDS011;63019;51.080;13.642;2023-07-20T05:31:11;8.55;;;2.80;;
74487;SDS011;63019;51.080;13.642;2023-07-20T05:32:13;8.90;;;3.07;;
74487;SDS011;63019;51.080;13.642;2023-07-20T05:33:15;9.73;;;3.10;;
74487;SDS011;63019;51.080;13.642;2023-07-20T05:34:16;7.22;;;2.78;;
74487;SDS011;63019;51.080;13.642;2023-07-20T05:35:18;13.15;;;3.13;;
74487;SDS011;63019;51.080;13.642;2023-07-20T05:36:20;11.93;;;3.00;;
74487;SDS011;63019;51.080;13.642;2023-07-20T05:37:22;10.43;;;2.80;;
74487;SDS011;63019;51.080;13.642;2023-07-20T05:38:24;15.55;;;3.03;;
74487;SDS011;63019;51.080;13.642;2023-07-20T05:39:26;6.20;;;2.47;;
74487;SDS011;63019;51.080;13.642;2023-07-20T05:40:28;8.15;;;2.53;;
74487;SDS011;63019;51.080;13.642;2023-07-20T05:41:30;13.80;;;2.83;;
74487;SDS011;63019;51.080;13.642;2023-07-20T05:42:32;11.03;;;2.73;;
74487;SDS011;63019;51.080;13.642;2023-07-20T05:43:34;8.65;;;2.80;;
74487;SDS011;63019;51.080;13.642;2023-07-20T05:44:36;9.88;;;2.92;;
74487;SDS011;63019;51.080;13.642;2023-07-20T05:45:41;14.73;;;2.70;;
74487;SDS011;63019;51.080;13.642;2023-07-20T05:46:44;9.43;;;2.72;;
74487;SDS011;63019;51.080;13.642;2023-07-20T05:47:58;10.07;;;2.53;;
74487;SDS011;63019;51.080;13.642;2023-07-20T05:49:00;11.32;;;2.47;;
74487;SDS011;63019;51.080;13.642;2023-07-20T05:50:02;10.23;;;2.30;;
74487;SDS011;63019;51.080;13.642;2023-07-20T05:51:05;7.57;;;2.45;;
74487;SDS011;63019;51.080;13.642;2023-07-20T05:52:07;7.68;;;2.38;;
74487;SDS011;63019;51.080;13.642;2023-07-20T05:53:09;12.33;;;2.50;;
74487;SDS011;63019;51.080;13.642;2023-07-20T05:54:11;9.52;;;2.85;;
74487;SDS011;63019;51.080;13.642;2023-07-20T05:55:12;4.13;;;2.30;;
74487;SDS011;63019;51.080;13.642;2023-07-20T05:56:14;13.98;;;2.75;;
74487;SDS011;63019;51.080;13.642;2023-07-20T05:57:16;7.20;;;2.67;;
74487;SDS011;63019;51.080;13.642;2023-07-20T05:58:18;9.95;;;2.90;;
74487;SDS011;63019;51.080;13.642;2023-07-20T05:59:20;10.65;;;2.90;;
74487;SDS011;63019;51.080;13.642;2023-07-20T06:00:22;11.48;;;2.88;;
74487;SDS011;63019;51.080;13.642;2023-07-20T06:01:27;5.68;;;2.90;;
74487;SDS011;63019;51.080;13.642;2023-07-20T06:02:29;8.57;;;2.92;;
74487;SDS011;63019;51.080;13.642;2023-07-20T06:03:32;7.13;;;2.90;;
74487;SDS011;63019;51.080;13.642;2023-07-20T06:04:38;7.93;;;2.83;;
74487;SDS011;63019;51.080;13.642;2023-07-20T06:05:40;11.70;;;2.90;;
74487;SDS011;63019;51.080;13.642;2023-07-20T06:06:42;5.00;;;2.95;;
74487;SDS011;63019;51.080;13.642;2023-07-20T06:07:44;7.13;;;2.47;;
74487;SDS011;63019;51.080;13.642;2023-07-20T06:08:46;7.60;;;2.40;;
74487;SDS011;63019;51.080;13.642;2023-07-20T06:09:48;8.57;;;2.20;;
74487;SDS011;63019;51.080;13.642;2023-07-20T06:10:50;11.07;;;2.30;;
74487;SDS011;63019;51.080;13.642;2023-07-20T06:11:55;7.72;;;2.05;;
74487;SDS011;63019;51.080;13.642;2023-07-20T06:12:57;12.00;;;2.45;;
74487;SDS011;63019;51.080;13.642;2023-07-20T06:13:59;4.13;;;1.73;;
74487;SDS011;63019;51.080;13.642;2023-07-20T06:15:04;2.95;;;1.80;;
74487;SDS011;63019;51.080;13.642;2023-07-20T06:16:07;6.30;;;2.00;;
74487;SDS011;63019;51.080;13.642;2023-07-20T06:17:09;5.18;;;1.80;;
74487;SDS011;63019;51.080;13.642;2023-07-20T06:18:11;10.27;;;1.80;;
74487;SDS011;63019;51.080;13.642;2023-07-20T06:19:13;5.95;;;2.15;;
74487;SDS011;63019;51.080;13.642;2023-07-20T06:20:16;2.42;;;1.60;;
74487;SDS011;63019;51.080;13.642;2023-07-20T06:21:18;5.93;;;1.80;;
74487;SDS011;63019;51.080;13.642;2023-07-20T06:22:20;7.35;;;2.03;;
74487;SDS011;63019;51.080;13.642;2023-07-20T06:23:22;7.28;;;1.90;;